PWSweather.com
Personal Weather Stations
Station Observations
SHAHALMS1
Eftra, Falkenberg, HA

EftraFalkenberg, HA

Lat: 56.85, Lon: 12.65

Elevation: 140

Station Type:

http://hem.passagen.se/risarp101

High Low Average
Temperature 60.1°F15.6°C 54.5°F12.5°C 56.8°F13.8°C
Dew Point 56.8°F13.8°C 52.2°F11.2°C 54.0°F12.2°C
Winds 11.7 mph 18.8 kmh 1.5 mph 2.4 kmh 5.0 mph SW8.0 kmh SW
Wind Gusts 19.3 mph31.1 kmh 1.8 mph2.9 kmh 7.0 mph11.3 kmh
Humidity 95% 84% 91%
Pressure 29.53 in1000.0 mb 29.21 in989.2 mb -
Precipitation 0.23 in5.8 mm - -
Hour Temp Dew Point Humidity Winds Wind Gusts Pressure Precip Precip Rate Daily Precip Total
12:00 AM 55.6°F13.1°C 53.9°F12.2°C 94% 4.8 mph S7.7 kmh S 10.7 mph17.2 kmh 29.53 in1000.0 mb 0.09 in2.3 mm 0.00 in0.0 mm 0.09 in2.3 mm
12:10 AM 55.6°F13.1°C 53.9°F12.2°C 94% 4.4 mph S7.1 kmh S 5.4 mph8.7 kmh 29.50 in999.0 mb 0.09 in2.3 mm 0.00 in0.0 mm 0.09 in2.3 mm
12:20 AM 55.6°F13.1°C 53.9°F12.2°C 94% 4.4 mph S7.1 kmh S 5.4 mph8.7 kmh 29.50 in999.0 mb 0.05 in1.3 mm 0.00 in0.0 mm 0.09 in2.3 mm
12:30 AM 55.8°F13.2°C 54.1°F12.3°C 94% 4.4 mph S7.1 kmh S 5.4 mph8.7 kmh 29.50 in999.0 mb 0.05 in1.3 mm 0.00 in0.0 mm 0.09 in2.3 mm
12:40 AM 55.8°F13.2°C 54.1°F12.3°C 94% 4.4 mph S7.1 kmh S 5.4 mph8.7 kmh 29.50 in999.0 mb 0.14 in3.6 mm 0.54 in13.7 mm 0.18 in4.6 mm
12:50 AM 55.8°F13.2°C 54.1°F12.3°C 94% 4.4 mph S7.1 kmh S 5.4 mph8.7 kmh 29.50 in999.0 mb 0.14 in3.6 mm 0.00 in0.0 mm 0.18 in4.6 mm
01:00 AM 55.9°F13.3°C 54.2°F12.3°C 94% 4.4 mph S7.1 kmh S 5.4 mph8.7 kmh 29.47 in998.0 mb 0.14 in3.6 mm 0.00 in0.0 mm 0.23 in5.8 mm
01:10 AM 56.1°F13.4°C 54.7°F12.6°C 95% 4.4 mph S7.1 kmh S 5.4 mph8.7 kmh 29.47 in998.0 mb 0.14 in3.6 mm 0.00 in0.0 mm 0.23 in5.8 mm
01:20 AM 56.1°F13.4°C 54.7°F12.6°C 95% 4.4 mph S7.1 kmh S 5.4 mph8.7 kmh 29.47 in998.0 mb 0.14 in3.6 mm 0.00 in0.0 mm 0.23 in5.8 mm
01:30 AM 56.3°F13.5°C 54.9°F12.7°C 95% 4.4 mph S7.1 kmh S 5.4 mph8.7 kmh 29.47 in998.0 mb 0.14 in3.6 mm 0.00 in0.0 mm 0.23 in5.8 mm
01:40 AM 56.1°F13.4°C 54.7°F12.6°C 95% 4.4 mph S7.1 kmh S 5.4 mph8.7 kmh 29.45 in997.3 mb 0.05 in1.3 mm 0.00 in0.0 mm 0.23 in5.8 mm
01:50 AM 56.1°F13.4°C 54.7°F12.6°C 95% 4.4 mph S7.1 kmh S 5.4 mph8.7 kmh 29.45 in997.3 mb 0.00 in0.0 mm 0.00 in0.0 mm 0.23 in5.8 mm
02:00 AM 56.1°F13.4°C 54.7°F12.6°C 95% 4.4 mph S7.1 kmh S 5.4 mph8.7 kmh 29.45 in997.3 mb 0.00 in0.0 mm 0.00 in0.0 mm 0.23 in5.8 mm
02:10 AM 56.3°F13.5°C 54.9°F12.7°C 95% 4.4 mph S7.1 kmh S 5.4 mph8.7 kmh 29.47 in998.0 mb 0.00 in0.0 mm 0.00 in0.0 mm 0.23 in5.8 mm
02:20 AM 56.3°F13.5°C 54.9°F12.7°C 95% 4.4 mph S7.1 kmh S 5.4 mph8.7 kmh 29.47 in998.0 mb 0.00 in0.0 mm 0.00 in0.0 mm 0.23 in5.8 mm
02:30 AM 56.3°F13.5°C 54.9°F12.7°C 95% 4.4 mph S7.1 kmh S 5.4 mph8.7 kmh 29.47 in998.0 mb 0.00 in0.0 mm 0.00 in0.0 mm 0.23 in5.8 mm
02:40 AM 55.9°F13.3°C 54.2°F12.3°C 94% 4.4 mph S7.1 kmh S 5.4 mph8.7 kmh 29.47 in998.0 mb 0.00 in0.0 mm 0.00 in0.0 mm 0.23 in5.8 mm
02:50 AM 55.6°F13.1°C 53.9°F12.2°C 94% 4.4 mph S7.1 kmh S 5.4 mph8.7 kmh 29.47 in998.0 mb 0.00 in0.0 mm 0.00 in0.0 mm 0.23 in5.8 mm
03:00 AM 55.2°F12.9°C 53.5°F11.9°C 94% 4.4 mph S7.1 kmh S 5.4 mph8.7 kmh 29.47 in998.0 mb 0.00 in0.0 mm 0.00 in0.0 mm 0.23 in5.8 mm
03:10 AM 55.0°F12.8°C 53.3°F11.8°C 94% 4.4 mph S7.1 kmh S 5.4 mph8.7 kmh 29.50 in999.0 mb 0.00 in0.0 mm 0.00 in0.0 mm 0.23 in5.8 mm
03:20 AM 54.9°F12.7°C 53.2°F11.8°C 94% 4.4 mph S7.1 kmh S 5.4 mph8.7 kmh 29.50 in999.0 mb 0.00 in0.0 mm 0.00 in0.0 mm 0.23 in5.8 mm
03:30 AM 54.9°F12.7°C 53.2°F11.8°C 94% 4.4 mph S7.1 kmh S 5.4 mph8.7 kmh 29.47 in998.0 mb 0.00 in0.0 mm 0.00 in0.0 mm 0.23 in5.8 mm
03:40 AM 54.7°F12.6°C 53.0°F11.7°C 94% 4.4 mph S7.1 kmh S 5.4 mph8.7 kmh 29.47 in998.0 mb 0.00 in0.0 mm 0.00 in0.0 mm 0.23 in5.8 mm
03:50 AM 54.7°F12.6°C 53.0°F11.7°C 94% 4.4 mph S7.1 kmh S 5.4 mph8.7 kmh 29.47 in998.0 mb 0.00 in0.0 mm 0.00 in0.0 mm 0.23 in5.8 mm
04:00 AM 54.7°F12.6°C 53.0°F11.7°C 94% 4.4 mph S7.1 kmh S 5.4 mph8.7 kmh 29.47 in998.0 mb 0.00 in0.0 mm 0.00 in0.0 mm 0.23 in5.8 mm
04:10 AM 54.7°F12.6°C 53.0°F11.7°C 94% 4.4 mph S7.1 kmh S 5.4 mph8.7 kmh 29.47 in998.0 mb 0.00 in0.0 mm 0.00 in0.0 mm 0.23 in5.8 mm
04:20 AM 54.7°F12.6°C 53.0°F11.7°C 94% 4.4 mph S7.1 kmh S 5.4 mph8.7 kmh 29.47 in998.0 mb 0.00 in0.0 mm 0.00 in0.0 mm 0.23 in5.8 mm
04:30 AM 54.7°F12.6°C 53.0°F11.7°C 94% 4.4 mph S7.1 kmh S 5.4 mph8.7 kmh 29.50 in999.0 mb 0.00 in0.0 mm 0.00 in0.0 mm 0.23 in5.8 mm
04:40 AM 54.7°F12.6°C 53.0°F11.7°C 94% 4.4 mph S7.1 kmh S 5.4 mph8.7 kmh 29.47 in998.0 mb 0.00 in0.0 mm 0.00 in0.0 mm 0.23 in5.8 mm
04:50 AM 54.5°F12.5°C 52.8°F11.6°C 94% 4.4 mph S7.1 kmh S 5.4 mph8.7 kmh 29.47 in998.0 mb 0.00 in0.0 mm 0.00 in0.0 mm 0.23 in5.8 mm
05:00 AM 54.5°F12.5°C 52.5°F11.4°C 93% 4.4 mph S7.1 kmh S 5.4 mph8.7 kmh 29.47 in998.0 mb 0.00 in0.0 mm 0.00 in0.0 mm 0.23 in5.8 mm
05:10 AM 54.5°F12.5°C 52.5°F11.4°C 93% 4.4 mph S7.1 kmh S 5.4 mph8.7 kmh 29.47 in998.0 mb 0.00 in0.0 mm 0.00 in0.0 mm 0.23 in5.8 mm
05:20 AM 54.5°F12.5°C 52.5°F11.4°C 93% 4.4 mph S7.1 kmh S 5.4 mph8.7 kmh 29.47 in998.0 mb 0.00 in0.0 mm 0.00 in0.0 mm 0.23 in5.8 mm
05:30 AM 54.7°F12.6°C 52.7°F11.5°C 93% 4.4 mph S7.1 kmh S 5.4 mph8.7 kmh 29.47 in998.0 mb 0.00 in0.0 mm 0.00 in0.0 mm 0.23 in5.8 mm
05:40 AM 54.5°F12.5°C 52.5°F11.4°C 93% 4.4 mph S7.1 kmh S 5.4 mph8.7 kmh 29.45 in997.3 mb 0.00 in0.0 mm 0.00 in0.0 mm 0.23 in5.8 mm
05:50 AM 54.5°F12.5°C 52.5°F11.4°C 93% 4.4 mph S7.1 kmh S 5.4 mph8.7 kmh 29.45 in997.3 mb 0.00 in0.0 mm 0.00 in0.0 mm 0.23 in5.8 mm
06:00 AM 54.5°F12.5°C 52.5°F11.4°C 93% 4.4 mph S7.1 kmh S 5.4 mph8.7 kmh 29.45 in997.3 mb 0.00 in0.0 mm 0.00 in0.0 mm 0.23 in5.8 mm
06:10 AM 54.5°F12.5°C 52.5°F11.4°C 93% 4.4 mph S7.1 kmh S 5.4 mph8.7 kmh 29.45 in997.3 mb 0.00 in0.0 mm 0.00 in0.0 mm 0.23 in5.8 mm
06:20 AM 54.5°F12.5°C 52.5°F11.4°C 93% 4.4 mph S7.1 kmh S 5.4 mph8.7 kmh 29.45 in997.3 mb 0.00 in0.0 mm 0.00 in0.0 mm 0.23 in5.8 mm
06:30 AM 54.5°F12.5°C 52.5°F11.4°C 93% 4.4 mph S7.1 kmh S 5.4 mph8.7 kmh 29.45 in997.3 mb 0.00 in0.0 mm 0.00 in0.0 mm 0.23 in5.8 mm
06:40 AM 54.7°F12.6°C 52.7°F11.5°C 93% 4.4 mph S7.1 kmh S 5.4 mph8.7 kmh 29.45 in997.3 mb 0.00 in0.0 mm 0.00 in0.0 mm 0.23 in5.8 mm
06:50 AM 54.5°F12.5°C 52.5°F11.4°C 93% 4.4 mph S7.1 kmh S 5.4 mph8.7 kmh 29.45 in997.3 mb 0.00 in0.0 mm 0.00 in0.0 mm 0.23 in5.8 mm
07:00 AM 54.7°F12.6°C 52.7°F11.5°C 93% 2.6 mph W4.2 kmh W 4.7 mph7.6 kmh 29.45 in997.3 mb 0.00 in0.0 mm 0.00 in0.0 mm 0.23 in5.8 mm
07:10 AM 54.7°F12.6°C 52.7°F11.5°C 93% 3.4 mph W5.5 kmh W 4.7 mph7.6 kmh 29.45 in997.3 mb 0.00 in0.0 mm 0.00 in0.0 mm 0.23 in5.8 mm
07:20 AM 54.9°F12.7°C 52.9°F11.6°C 93% 3.8 mph W6.1 kmh W 4.7 mph7.6 kmh 29.45 in997.3 mb 0.00 in0.0 mm 0.00 in0.0 mm 0.23 in5.8 mm
07:30 AM 54.9°F12.7°C 52.9°F11.6°C 93% 3.8 mph W6.1 kmh W 4.7 mph7.6 kmh 29.45 in997.3 mb 0.00 in0.0 mm 0.00 in0.0 mm 0.23 in5.8 mm
07:40 AM 55.0°F12.8°C 53.1°F11.7°C 93% 3.8 mph W6.1 kmh W 4.7 mph7.6 kmh 29.45 in997.3 mb 0.00 in0.0 mm 0.00 in0.0 mm 0.23 in5.8 mm
07:50 AM 55.2°F12.9°C 53.2°F11.8°C 93% 3.8 mph W6.1 kmh W 4.7 mph7.6 kmh 29.45 in997.3 mb 0.00 in0.0 mm 0.00 in0.0 mm 0.23 in5.8 mm
08:00 AM 55.4°F13.0°C 53.4°F11.9°C 93% 3.8 mph W6.1 kmh W 4.7 mph7.6 kmh 29.45 in997.3 mb 0.00 in0.0 mm 0.00 in0.0 mm 0.23 in5.8 mm
08:10 AM 55.6°F13.1°C 53.6°F12.0°C 93% 3.8 mph W6.1 kmh W 4.7 mph7.6 kmh 29.45 in997.3 mb 0.00 in0.0 mm 0.00 in0.0 mm 0.23 in5.8 mm
08:20 AM 56.3°F13.5°C 54.3°F12.4°C 93% 3.8 mph W6.1 kmh W 4.7 mph7.6 kmh 29.45 in997.3 mb 0.00 in0.0 mm 0.00 in0.0 mm 0.23 in5.8 mm
08:30 AM 56.7°F13.7°C 54.7°F12.6°C 93% 3.8 mph W6.1 kmh W 4.7 mph7.6 kmh 29.45 in997.3 mb 0.00 in0.0 mm 0.00 in0.0 mm 0.23 in5.8 mm
08:40 AM 56.8°F13.8°C 54.8°F12.7°C 93% 3.8 mph W6.1 kmh W 4.7 mph7.6 kmh 29.45 in997.3 mb 0.00 in0.0 mm 0.00 in0.0 mm 0.23 in5.8 mm
08:50 AM 57.6°F14.2°C 55.6°F13.1°C 93% 3.2 mph S5.1 kmh S 3.9 mph6.3 kmh 29.45 in997.3 mb 0.00 in0.0 mm 0.00 in0.0 mm 0.23 in5.8 mm
09:00 AM 57.9°F14.4°C 55.6°F13.1°C 92% 3.2 mph S5.1 kmh S 3.9 mph6.3 kmh 29.45 in997.3 mb 0.00 in0.0 mm 0.00 in0.0 mm 0.23 in5.8 mm
09:10 AM 58.1°F14.5°C 55.5°F13.1°C 91% 3.5 mph W5.6 kmh W 4.3 mph6.9 kmh 29.45 in997.3 mb 0.00 in0.0 mm 0.00 in0.0 mm 0.23 in5.8 mm
09:20 AM 58.5°F14.7°C 55.8°F13.2°C 91% 3.5 mph W5.6 kmh W 4.3 mph6.9 kmh 29.45 in997.3 mb 0.00 in0.0 mm 0.00 in0.0 mm 0.23 in5.8 mm
09:30 AM 58.6°F14.8°C 55.7°F13.2°C 90% 3.5 mph W5.6 kmh W 4.3 mph6.9 kmh 29.45 in997.3 mb 0.00 in0.0 mm 0.00 in0.0 mm 0.23 in5.8 mm
09:40 AM 58.5°F14.7°C 55.2°F12.9°C 89% 3.5 mph W5.6 kmh W 4.3 mph6.9 kmh 29.45 in997.3 mb 0.00 in0.0 mm 0.00 in0.0 mm 0.23 in5.8 mm
09:50 AM 58.8°F14.9°C 55.6°F13.1°C 89% 3.5 mph W5.6 kmh W 4.3 mph6.9 kmh 29.45 in997.3 mb 0.00 in0.0 mm 0.00 in0.0 mm 0.23 in5.8 mm
10:00 AM 59.0°F15.0°C 55.8°F13.2°C 89% 3.5 mph W5.6 kmh W 4.3 mph6.9 kmh 29.45 in997.3 mb 0.00 in0.0 mm 0.00 in0.0 mm 0.23 in5.8 mm
10:10 AM 59.4°F15.2°C 56.1°F13.4°C 89% 3.5 mph W5.6 kmh W 4.3 mph6.9 kmh 29.41 in995.9 mb 0.00 in0.0 mm 0.00 in0.0 mm 0.23 in5.8 mm
10:20 AM 59.0°F15.0°C 55.4°F13.0°C 88% 3.5 mph W5.6 kmh W 4.3 mph6.9 kmh 29.41 in995.9 mb 0.00 in0.0 mm 0.00 in0.0 mm 0.23 in5.8 mm
10:30 AM 58.6°F14.8°C 54.8°F12.7°C 87% 3.5 mph W5.6 kmh W 4.3 mph6.9 kmh 29.41 in995.9 mb 0.00 in0.0 mm 0.00 in0.0 mm 0.23 in5.8 mm
10:40 AM 58.1°F14.5°C 54.2°F12.3°C 87% 3.5 mph W5.6 kmh W 4.3 mph6.9 kmh 29.41 in995.9 mb 0.00 in0.0 mm 0.00 in0.0 mm 0.23 in5.8 mm
10:50 AM 58.8°F14.9°C 55.6°F13.1°C 89% 3.5 mph W5.6 kmh W 4.3 mph6.9 kmh 29.41 in995.9 mb 0.00 in0.0 mm 0.00 in0.0 mm 0.23 in5.8 mm
11:00 AM 58.6°F14.8°C 55.4°F13.0°C 89% 3.5 mph W5.6 kmh W 4.3 mph6.9 kmh 29.41 in995.9 mb 0.00 in0.0 mm 0.00 in0.0 mm 0.23 in5.8 mm
11:10 AM 58.6°F14.8°C 55.4°F13.0°C 89% 7.0 mph S11.3 kmh S 8.6 mph13.8 kmh 29.41 in995.9 mb 0.00 in0.0 mm 0.00 in0.0 mm 0.23 in5.8 mm
11:20 AM 59.0°F15.0°C 55.8°F13.2°C 89% 7.1 mph SSW11.4 kmh SSW 14.0 mph22.5 kmh 29.41 in995.9 mb 0.00 in0.0 mm 0.00 in0.0 mm 0.23 in5.8 mm
11:30 AM 59.7°F15.4°C 56.8°F13.8°C 90% 7.9 mph SSW12.7 kmh SSW 15.7 mph25.3 kmh 29.41 in995.9 mb 0.00 in0.0 mm 0.00 in0.0 mm 0.23 in5.8 mm
11:40 AM 59.5°F15.3°C 56.0°F13.3°C 88% 10.7 mph WSW17.2 kmh WSW 19.3 mph31.1 kmh 29.41 in995.9 mb 0.00 in0.0 mm 0.00 in0.0 mm 0.23 in5.8 mm
11:50 AM 59.5°F15.3°C 56.0°F13.3°C 88% 7.0 mph S11.3 kmh S 8.6 mph13.8 kmh 29.41 in995.9 mb 0.00 in0.0 mm 0.00 in0.0 mm 0.23 in5.8 mm
12:00 PM 59.7°F15.4°C 55.8°F13.2°C 87% 7.0 mph S11.3 kmh S 8.6 mph13.8 kmh 29.39 in995.3 mb 0.00 in0.0 mm 0.00 in0.0 mm 0.23 in5.8 mm
12:10 PM 59.7°F15.4°C 55.5°F13.1°C 86% 7.0 mph S11.3 kmh S 8.6 mph13.8 kmh 29.41 in995.9 mb 0.00 in0.0 mm 0.00 in0.0 mm 0.23 in5.8 mm
12:20 PM 59.9°F15.5°C 56.0°F13.3°C 87% 5.3 mph W8.5 kmh W 11.8 mph19.0 kmh 29.41 in995.9 mb 0.00 in0.0 mm 0.00 in0.0 mm 0.23 in5.8 mm
12:30 PM 60.1°F15.6°C 55.9°F13.3°C 86% 9.2 mph S14.8 kmh S 14.0 mph22.5 kmh 29.41 in995.9 mb 0.00 in0.0 mm 0.00 in0.0 mm 0.23 in5.8 mm
12:40 PM 60.1°F15.6°C 55.6°F13.1°C 85% 11.3 mph S18.2 kmh S 14.0 mph22.5 kmh 29.41 in995.9 mb 0.00 in0.0 mm 0.00 in0.0 mm 0.23 in5.8 mm
12:50 PM 59.9°F15.5°C 55.4°F13.0°C 85% 6.4 mph S10.3 kmh S 7.9 mph12.7 kmh 29.41 in995.9 mb 0.00 in0.0 mm 0.00 in0.0 mm 0.23 in5.8 mm
01:00 PM 59.9°F15.5°C 55.1°F12.8°C 84% 6.2 mph S10.0 kmh S 7.9 mph12.7 kmh 29.41 in995.9 mb 0.00 in0.0 mm 0.00 in0.0 mm 0.23 in5.8 mm
01:10 PM 59.4°F15.2°C 54.5°F12.5°C 84% 8.5 mph W13.7 kmh W 11.8 mph19.0 kmh 29.41 in995.9 mb 0.00 in0.0 mm 0.00 in0.0 mm 0.23 in5.8 mm
01:20 PM 59.0°F15.0°C 54.2°F12.3°C 84% 4.4 mph S7.1 kmh S 5.4 mph8.7 kmh 29.41 in995.9 mb 0.00 in0.0 mm 0.00 in0.0 mm 0.23 in5.8 mm
01:30 PM 58.6°F14.8°C 53.8°F12.1°C 84% 9.4 mph S15.1 kmh S 12.9 mph20.8 kmh 29.41 in995.9 mb 0.00 in0.0 mm 0.00 in0.0 mm 0.23 in5.8 mm
01:40 PM 58.8°F14.9°C 54.3°F12.4°C 85% 10.5 mph S16.9 kmh S 12.9 mph20.8 kmh 29.41 in995.9 mb 0.00 in0.0 mm 0.00 in0.0 mm 0.23 in5.8 mm
01:50 PM 58.8°F14.9°C 54.3°F12.4°C 85% 9.0 mph SSW14.5 kmh SSW 16.8 mph27.0 kmh 29.41 in995.9 mb 0.00 in0.0 mm 0.00 in0.0 mm 0.23 in5.8 mm
02:00 PM 58.3°F14.6°C 53.5°F11.9°C 84% 7.0 mph S11.3 kmh S 9.3 mph15.0 kmh 29.41 in995.9 mb 0.00 in0.0 mm 0.00 in0.0 mm 0.23 in5.8 mm
02:10 PM 59.2°F15.1°C 55.0°F12.8°C 86% 5.5 mph SSW8.9 kmh SSW 10.4 mph16.7 kmh 29.39 in995.3 mb 0.00 in0.0 mm 0.00 in0.0 mm 0.23 in5.8 mm
02:20 PM 59.4°F15.2°C 55.2°F12.9°C 86% 6.3 mph SW10.1 kmh SW 9.3 mph15.0 kmh 29.39 in995.3 mb 0.00 in0.0 mm 0.00 in0.0 mm 0.23 in5.8 mm
02:30 PM 59.4°F15.2°C 54.8°F12.7°C 85% 6.6 mph S10.6 kmh S 9.3 mph15.0 kmh 29.39 in995.3 mb 0.00 in0.0 mm 0.00 in0.0 mm 0.23 in5.8 mm
02:40 PM 59.5°F15.3°C 55.0°F12.8°C 85% 6.3 mph SW10.1 kmh SW 8.9 mph14.3 kmh 29.36 in994.2 mb 0.00 in0.0 mm 0.00 in0.0 mm 0.23 in5.8 mm
02:50 PM 59.4°F15.2°C 54.5°F12.5°C 84% 5.2 mph W8.4 kmh W 6.4 mph10.3 kmh 29.36 in994.2 mb 0.00 in0.0 mm 0.00 in0.0 mm 0.23 in5.8 mm
03:00 PM 59.2°F15.1°C 54.3°F12.4°C 84% 5.6 mph S9.0 kmh S 10.0 mph16.1 kmh 29.36 in994.2 mb 0.00 in0.0 mm 0.00 in0.0 mm 0.23 in5.8 mm
03:10 PM 58.8°F14.9°C 54.0°F12.2°C 84% 8.9 mph S14.3 kmh S 11.5 mph18.5 kmh 29.33 in993.2 mb 0.00 in0.0 mm 0.00 in0.0 mm 0.23 in5.8 mm
03:20 PM 58.5°F14.7°C 53.6°F12.0°C 84% 9.3 mph S15.0 kmh S 11.5 mph18.5 kmh 29.33 in993.2 mb 0.00 in0.0 mm 0.00 in0.0 mm 0.23 in5.8 mm
03:30 PM 58.5°F14.7°C 53.6°F12.0°C 84% 11.7 mph S18.8 kmh S 15.7 mph25.3 kmh 29.36 in994.2 mb 0.00 in0.0 mm 0.00 in0.0 mm 0.23 in5.8 mm
03:40 PM 58.5°F14.7°C 54.0°F12.2°C 85% 7.9 mph S12.7 kmh S 11.8 mph19.0 kmh 29.36 in994.2 mb 0.00 in0.0 mm 0.00 in0.0 mm 0.23 in5.8 mm
03:50 PM 58.5°F14.7°C 54.0°F12.2°C 85% 4.1 mph W6.6 kmh W 5.0 mph8.0 kmh 29.36 in994.2 mb 0.00 in0.0 mm 0.00 in0.0 mm 0.23 in5.8 mm
04:00 PM 58.3°F14.6°C 53.8°F12.1°C 85% 4.1 mph W6.6 kmh W 5.0 mph8.0 kmh 29.39 in995.3 mb 0.00 in0.0 mm 0.00 in0.0 mm 0.23 in5.8 mm
04:10 PM 58.3°F14.6°C 53.8°F12.1°C 85% 4.1 mph W6.6 kmh W 5.0 mph8.0 kmh 29.36 in994.2 mb 0.00 in0.0 mm 0.00 in0.0 mm 0.23 in5.8 mm
04:20 PM 58.3°F14.6°C 53.8°F12.1°C 85% 4.1 mph W6.6 kmh W 5.0 mph8.0 kmh 29.36 in994.2 mb 0.00 in0.0 mm 0.00 in0.0 mm 0.23 in5.8 mm
04:30 PM 58.3°F14.6°C 54.1°F12.3°C 86% 4.1 mph W6.6 kmh W 5.0 mph8.0 kmh 29.36 in994.2 mb 0.00 in0.0 mm 0.00 in0.0 mm 0.23 in5.8 mm
04:40 PM 58.1°F14.5°C 53.9°F12.2°C 86% 7.3 mph NNW11.7 kmh NNW 8.9 mph14.3 kmh 29.36 in994.2 mb 0.00 in0.0 mm 0.00 in0.0 mm 0.23 in5.8 mm
04:50 PM 58.1°F14.5°C 54.2°F12.3°C 87% 7.3 mph NNW11.7 kmh NNW 8.9 mph14.3 kmh 29.36 in994.2 mb 0.00 in0.0 mm 0.00 in0.0 mm 0.23 in5.8 mm
05:00 PM 57.9°F14.4°C 54.1°F12.3°C 87% 8.6 mph S13.8 kmh S 12.2 mph19.6 kmh 29.33 in993.2 mb 0.00 in0.0 mm 0.00 in0.0 mm 0.23 in5.8 mm
05:10 PM 57.7°F14.3°C 54.2°F12.3°C 88% 4.5 mph S7.2 kmh S 6.1 mph9.8 kmh 29.33 in993.2 mb 0.00 in0.0 mm 0.00 in0.0 mm 0.23 in5.8 mm
05:20 PM 57.6°F14.2°C 54.0°F12.2°C 88% 7.2 mph W11.6 kmh W 12.2 mph19.6 kmh 29.33 in993.2 mb 0.00 in0.0 mm 0.00 in0.0 mm 0.23 in5.8 mm
05:30 PM 57.2°F14.0°C 53.7°F12.1°C 88% 9.9 mph WNW15.9 kmh WNW 12.2 mph19.6 kmh 29.33 in993.2 mb 0.00 in0.0 mm 0.00 in0.0 mm 0.23 in5.8 mm
05:40 PM 57.0°F13.9°C 53.5°F11.9°C 88% 9.9 mph WNW15.9 kmh WNW 12.2 mph19.6 kmh 29.33 in993.2 mb 0.00 in0.0 mm 0.00 in0.0 mm 0.23 in5.8 mm
05:50 PM 57.0°F13.9°C 53.8°F12.1°C 89% 9.9 mph WNW15.9 kmh WNW 12.2 mph19.6 kmh 29.33 in993.2 mb 0.00 in0.0 mm 0.00 in0.0 mm 0.23 in5.8 mm
06:00 PM 56.8°F13.8°C 53.6°F12.0°C 89% 9.9 mph WNW15.9 kmh WNW 12.2 mph19.6 kmh 29.33 in993.2 mb 0.00 in0.0 mm 0.00 in0.0 mm 0.23 in5.8 mm
06:10 PM 56.7°F13.7°C 53.5°F11.9°C 89% 9.9 mph WNW15.9 kmh WNW 12.2 mph19.6 kmh 29.33 in993.2 mb 0.00 in0.0 mm 0.00 in0.0 mm 0.23 in5.8 mm
06:20 PM 56.7°F13.7°C 53.8°F12.1°C 90% 9.9 mph WNW15.9 kmh WNW 12.2 mph19.6 kmh 29.33 in993.2 mb 0.00 in0.0 mm 0.00 in0.0 mm 0.23 in5.8 mm
06:30 PM 56.7°F13.7°C 53.8°F12.1°C 90% 9.9 mph WNW15.9 kmh WNW 12.2 mph19.6 kmh 29.33 in993.2 mb 0.00 in0.0 mm 0.00 in0.0 mm 0.23 in5.8 mm
06:40 PM 56.5°F13.6°C 53.6°F12.0°C 90% 9.9 mph WNW15.9 kmh WNW 12.2 mph19.6 kmh 29.33 in993.2 mb 0.00 in0.0 mm 0.00 in0.0 mm 0.23 in5.8 mm
06:50 PM 56.7°F13.7°C 53.8°F12.1°C 90% 9.9 mph WNW15.9 kmh WNW 12.2 mph19.6 kmh 29.33 in993.2 mb 0.00 in0.0 mm 0.00 in0.0 mm 0.23 in5.8 mm
07:00 PM 56.7°F13.7°C 54.1°F12.3°C 91% 9.9 mph WNW15.9 kmh WNW 12.2 mph19.6 kmh 29.30 in992.2 mb 0.00 in0.0 mm 0.00 in0.0 mm 0.23 in5.8 mm
07:10 PM 56.8°F13.8°C 54.2°F12.3°C 91% 9.9 mph WNW15.9 kmh WNW 12.2 mph19.6 kmh 29.30 in992.2 mb 0.00 in0.0 mm 0.00 in0.0 mm 0.23 in5.8 mm
07:20 PM 56.8°F13.8°C 54.2°F12.3°C 91% 9.9 mph WNW15.9 kmh WNW 12.2 mph19.6 kmh 29.30 in992.2 mb 0.00 in0.0 mm 0.00 in0.0 mm 0.23 in5.8 mm
07:30 PM 56.8°F13.8°C 54.5°F12.5°C 92% 7.8 mph S12.6 kmh S 12.5 mph20.1 kmh 29.30 in992.2 mb 0.00 in0.0 mm 0.00 in0.0 mm 0.23 in5.8 mm
07:40 PM 56.8°F13.8°C 54.5°F12.5°C 92% 3.8 mph S6.1 kmh S 4.7 mph7.6 kmh 29.30 in992.2 mb 0.00 in0.0 mm 0.00 in0.0 mm 0.23 in5.8 mm
07:50 PM 56.8°F13.8°C 54.5°F12.5°C 92% 3.8 mph S6.1 kmh S 4.7 mph7.6 kmh 29.30 in992.2 mb 0.00 in0.0 mm 0.00 in0.0 mm 0.23 in5.8 mm
08:00 PM 56.8°F13.8°C 54.5°F12.5°C 92% 3.8 mph S6.1 kmh S 4.7 mph7.6 kmh 29.30 in992.2 mb 0.00 in0.0 mm 0.00 in0.0 mm 0.23 in5.8 mm
08:10 PM 56.8°F13.8°C 54.5°F12.5°C 92% 3.8 mph S6.1 kmh S 4.7 mph7.6 kmh 29.30 in992.2 mb 0.00 in0.0 mm 0.00 in0.0 mm 0.23 in5.8 mm
08:20 PM 56.7°F13.7°C 54.4°F12.4°C 92% 3.8 mph S6.1 kmh S 4.7 mph7.6 kmh 29.30 in992.2 mb 0.00 in0.0 mm 0.00 in0.0 mm 0.23 in5.8 mm
08:30 PM 56.7°F13.7°C 54.4°F12.4°C 92% 3.8 mph S6.1 kmh S 4.7 mph7.6 kmh 29.30 in992.2 mb 0.00 in0.0 mm 0.00 in0.0 mm 0.23 in5.8 mm
08:40 PM 56.7°F13.7°C 54.4°F12.4°C 92% 3.8 mph S6.1 kmh S 4.7 mph7.6 kmh 29.30 in992.2 mb 0.00 in0.0 mm 0.00 in0.0 mm 0.23 in5.8 mm
08:50 PM 56.7°F13.7°C 54.4°F12.4°C 92% 3.8 mph S6.1 kmh S 4.7 mph7.6 kmh 29.30 in992.2 mb 0.00 in0.0 mm 0.00 in0.0 mm 0.23 in5.8 mm
09:00 PM 56.5°F13.6°C 54.2°F12.3°C 92% 3.8 mph S6.1 kmh S 4.7 mph7.6 kmh 29.30 in992.2 mb 0.00 in0.0 mm 0.00 in0.0 mm 0.23 in5.8 mm
09:10 PM 56.3°F13.5°C 54.0°F12.2°C 92% 3.8 mph S6.1 kmh S 4.7 mph7.6 kmh 29.30 in992.2 mb 0.00 in0.0 mm 0.00 in0.0 mm 0.23 in5.8 mm
09:20 PM 56.1°F13.4°C 53.8°F12.1°C 92% 3.8 mph S6.1 kmh S 4.7 mph7.6 kmh 29.30 in992.2 mb 0.00 in0.0 mm 0.00 in0.0 mm 0.23 in5.8 mm
09:30 PM 55.9°F13.3°C 53.6°F12.0°C 92% 3.8 mph S6.1 kmh S 4.7 mph7.6 kmh 29.30 in992.2 mb 0.00 in0.0 mm 0.00 in0.0 mm 0.23 in5.8 mm
09:40 PM 55.8°F13.2°C 53.5°F11.9°C 92% 3.8 mph S6.1 kmh S 4.7 mph7.6 kmh 29.30 in992.2 mb 0.00 in0.0 mm 0.00 in0.0 mm 0.23 in5.8 mm
09:50 PM 55.4°F13.0°C 52.8°F11.6°C 91% 3.8 mph S6.1 kmh S 4.7 mph7.6 kmh 29.30 in992.2 mb 0.00 in0.0 mm 0.00 in0.0 mm 0.23 in5.8 mm
10:00 PM 55.0°F12.8°C 52.5°F11.4°C 91% 3.8 mph S6.1 kmh S 4.7 mph7.6 kmh 29.27 in991.2 mb 0.00 in0.0 mm 0.00 in0.0 mm 0.23 in5.8 mm
10:10 PM 55.0°F12.8°C 52.5°F11.4°C 91% 3.8 mph S6.1 kmh S 4.7 mph7.6 kmh 29.27 in991.2 mb 0.00 in0.0 mm 0.00 in0.0 mm 0.23 in5.8 mm
10:20 PM 54.9°F12.7°C 52.3°F11.3°C 91% 3.8 mph S6.1 kmh S 4.7 mph7.6 kmh 29.27 in991.2 mb 0.00 in0.0 mm 0.00 in0.0 mm 0.23 in5.8 mm
10:30 PM 55.0°F12.8°C 52.8°F11.6°C 92% 1.5 mph S2.4 kmh S 1.8 mph2.9 kmh 29.27 in991.2 mb 0.00 in0.0 mm 0.00 in0.0 mm 0.23 in5.8 mm
10:40 PM 55.0°F12.8°C 52.8°F11.6°C 92% 1.5 mph S2.4 kmh S 1.8 mph2.9 kmh 29.27 in991.2 mb 0.00 in0.0 mm 0.00 in0.0 mm 0.23 in5.8 mm
10:50 PM 54.9°F12.7°C 52.6°F11.4°C 92% 1.5 mph S2.4 kmh S 1.8 mph2.9 kmh 29.27 in991.2 mb 0.00 in0.0 mm 0.00 in0.0 mm 0.23 in5.8 mm
11:00 PM 54.9°F12.7°C 52.6°F11.4°C 92% 1.5 mph S2.4 kmh S 1.8 mph2.9 kmh 29.24 in990.2 mb 0.00 in0.0 mm 0.00 in0.0 mm 0.18 in4.6 mm
11:10 PM 54.9°F12.7°C 52.6°F11.4°C 92% 1.5 mph S2.4 kmh S 1.8 mph2.9 kmh 29.21 in989.2 mb 0.00 in0.0 mm 0.00 in0.0 mm 0.18 in4.6 mm
11:20 PM 54.7°F12.6°C 52.4°F11.3°C 92% 1.5 mph S2.4 kmh S 1.8 mph2.9 kmh 29.21 in989.2 mb 0.00 in0.0 mm 0.00 in0.0 mm 0.18 in4.6 mm
11:30 PM 54.5°F12.5°C 52.2°F11.2°C 92% 1.5 mph S2.4 kmh S 1.8 mph2.9 kmh 29.21 in989.2 mb 0.00 in0.0 mm 0.00 in0.0 mm 0.18 in4.6 mm
11:40 PM 54.5°F12.5°C 52.2°F11.2°C 92% 1.5 mph S2.4 kmh S 1.8 mph2.9 kmh 29.24 in990.2 mb 0.00 in0.0 mm 0.00 in0.0 mm 0.18 in4.6 mm
11:50 PM 54.5°F12.5°C 52.2°F11.2°C 92% 1.5 mph S2.4 kmh S 1.8 mph2.9 kmh 29.24 in990.2 mb 0.00 in0.0 mm 0.00 in0.0 mm 0.18 in4.6 mm